createdAt,value
2019-05-28T00:01:46.759Z,71.37
2019-05-28T00:06:48.683Z,71.82
2019-05-28T00:11:50.540Z,71.82
2019-05-28T00:16:52.359Z,72.10
2019-05-28T00:21:54.243Z,71.85
2019-05-28T00:26:57.150Z,72.24
2019-05-28T00:31:59.007Z,71.37
2019-05-28T00:37:00.864Z,72.19
2019-05-28T00:42:02.952Z,72.57
2019-05-28T00:47:04.913Z,72.00
2019-05-28T00:52:06.722Z,72.82
2019-05-28T00:57:08.875Z,73.45
2019-05-28T01:02:10.773Z,73.61
2019-05-28T01:07:12.597Z,72.67
2019-05-28T01:12:14.499Z,72.98
2019-05-28T01:17:16.467Z,73.17
2019-05-28T01:22:18.324Z,73.45
2019-05-28T01:27:20.294Z,73.49
2019-05-28T01:32:23.319Z,73.78
2019-05-28T01:37:25.207Z,73.42
2019-05-28T01:42:27.025Z,73.16
2019-05-28T01:47:28.899Z,73.56
2019-05-28T01:52:30.768Z,73.37
2019-05-28T01:57:32.675Z,73.62
2019-05-28T02:02:34.651Z,73.34
2019-05-28T02:07:36.752Z,73.61
2019-05-28T02:12:38.638Z,74.08
2019-05-28T02:17:40.541Z,74.69
2019-05-28T02:22:42.371Z,74.78
2019-05-28T02:27:44.267Z,74.62
2019-05-28T02:32:46.065Z,74.80
2019-05-28T02:37:48.008Z,75.02
2019-05-28T02:42:49.916Z,75.15
2019-05-28T02:47:51.878Z,74.65
2019-05-28T02:52:53.790Z,75.14
2019-05-28T02:57:56.079Z,74.94
2019-05-28T03:03:01.307Z,75.49
2019-05-28T03:08:03.227Z,75.46
2019-05-28T03:13:05.291Z,74.90
2019-05-28T03:18:11.392Z,74.38
2019-05-28T03:23:15.225Z,74.56
2019-05-28T03:28:17.151Z,74.55
2019-05-28T03:33:19.053Z,75.34
2019-05-28T03:38:24.032Z,74.65
2019-05-28T03:43:25.925Z,75.33
2019-05-28T03:48:27.736Z,75.24
2019-05-28T03:53:29.561Z,74.84
2019-05-28T03:58:32.531Z,75.33
2019-05-28T04:03:34.410Z,76.99
2019-05-28T04:08:36.212Z,76.96
2019-05-28T04:13:38.086Z,76.99
2019-05-28T04:18:39.941Z,78.13
2019-05-28T04:23:42.079Z,75.22
2019-05-28T04:28:44.050Z,76.48
2019-05-28T04:33:45.893Z,74.99
2019-05-28T04:38:47.706Z,73.60
2019-05-28T04:43:49.593Z,74.39
2019-05-28T04:48:51.476Z,73.24
2019-05-28T04:53:53.249Z,72.76
2019-05-28T04:58:55.122Z,72.06
2019-05-28T05:03:56.993Z,71.21
2019-05-28T05:08:58.848Z,71.34
2019-05-28T05:14:03.748Z,68.08
2019-05-28T05:19:05.770Z,68.52
2019-05-28T05:24:07.854Z,65.47
2019-05-28T05:29:09.667Z,65.04
2019-05-28T05:34:11.589Z,66.24
2019-05-28T05:39:14.432Z,62.85
2019-05-28T05:44:16.290Z,60.59
2019-05-28T05:49:18.181Z,59.62
2019-05-28T05:54:20.080Z,59.89
2019-05-28T05:59:21.942Z,59.50
2019-05-28T06:04:23.815Z,57.04
2019-05-28T06:09:25.605Z,56.81
2019-05-28T06:14:27.481Z,56.45
2019-05-28T06:19:29.344Z,56.18
2019-05-28T06:24:31.180Z,57.34
2019-05-28T06:29:33.087Z,56.61
2019-05-28T06:34:34.921Z,56.42
2019-05-28T06:39:36.802Z,55.85
2019-05-28T06:44:38.619Z,55.50
2019-05-28T06:49:40.495Z,53.83
2019-05-28T06:54:42.320Z,54.95
2019-05-28T06:59:44.293Z,52.87
2019-05-28T07:04:46.293Z,52.46
2019-05-28T07:09:48.111Z,53.18
2019-05-28T07:14:49.985Z,51.87
2019-05-28T07:19:51.975Z,51.23
2019-05-28T07:24:53.844Z,50.00
2019-05-28T07:29:55.748Z,49.45
2019-05-28T07:34:57.614Z,46.96
2019-05-28T07:39:59.437Z,46.72
2019-05-28T07:45:01.373Z,46.44
2019-05-28T07:50:05.993Z,46.37
2019-05-28T07:55:07.802Z,45.94
2019-05-28T08:00:12.028Z,45.17
2019-05-28T08:05:17.153Z,44.44
2019-05-28T08:10:17.719Z,44.52
2019-05-28T08:15:19.683Z,45.11
2019-05-28T08:20:21.585Z,43.96
2019-05-28T08:25:41.765Z,43.94
2019-05-28T08:30:27.292Z,40.73
2019-05-28T08:35:29.262Z,41.74
2019-05-28T08:40:31.258Z,41.42
2019-05-28T08:45:33.237Z,41.53
2019-05-28T08:50:35.427Z,40.57
2019-05-28T08:55:37.667Z,40.90
2019-05-28T09:00:41.794Z,39.51
2019-05-28T09:05:43.890Z,38.76
2019-05-28T09:10:45.836Z,37.58
2019-05-28T09:15:47.829Z,39.37
2019-05-28T09:20:49.967Z,38.05
2019-05-28T09:25:51.928Z,39.25
2019-05-28T09:30:54.151Z,38.82
2019-05-28T09:36:08.328Z,39.74
2019-05-28T09:40:59.833Z,38.82
2019-05-28T09:46:01.721Z,38.75
2019-05-28T09:51:03.698Z,36.61
2019-05-28T09:56:05.793Z,36.42
2019-05-28T10:01:07.929Z,37.25
2019-05-28T10:06:17.040Z,37.88
2019-05-28T10:11:16.660Z,38.02
2019-05-28T10:16:18.645Z,38.37
2019-05-28T10:21:20.427Z,37.91
2019-05-28T10:26:22.259Z,41.38
2019-05-28T10:31:24.146Z,37.26
2019-05-28T10:36:35.924Z,36.99
2019-05-28T10:41:29.822Z,36.97
2019-05-28T10:46:31.657Z,36.41
2019-05-28T10:51:33.512Z,36.79
2019-05-28T10:56:35.404Z,35.44
2019-05-28T11:01:37.398Z,37.24
2019-05-28T11:06:51.327Z,36.13
2019-05-28T11:11:43.268Z,36.51
2019-05-28T11:16:45.161Z,34.08
2019-05-28T11:21:47.029Z,34.98
2019-05-28T11:26:48.904Z,37.36
2019-05-28T11:31:50.739Z,36.60
2019-05-28T11:37:08.391Z,32.61
2019-05-28T11:41:56.932Z,34.24
2019-05-28T11:46:58.678Z,34.94
2019-05-28T11:52:00.711Z,35.40
2019-05-28T11:57:02.867Z,34.63
2019-05-28T12:02:05.555Z,32.67
2019-05-28T12:07:22.931Z,33.73
2019-05-28T12:12:11.992Z,31.94
2019-05-28T12:17:13.980Z,31.51
2019-05-28T12:22:15.836Z,32.62
2019-05-28T12:27:17.717Z,31.93
2019-05-28T12:32:21.496Z,33.96
2019-05-28T12:37:23.304Z,31.19
2019-05-28T12:42:27.155Z,31.26
2019-05-28T12:47:28.889Z,31.60
2019-05-28T12:52:30.818Z,31.00
2019-05-28T12:57:32.681Z,31.91
2019-05-28T13:02:34.558Z,30.92
2019-05-28T13:07:36.567Z,32.27
2019-05-28T13:12:38.468Z,32.45
2019-05-28T13:17:40.298Z,31.82
2019-05-28T13:22:42.185Z,29.89
2019-05-28T13:27:43.998Z,27.33
2019-05-28T13:32:46.144Z,28.07
2019-05-28T13:37:49.294Z,30.57
2019-05-28T13:42:51.255Z,33.44
2019-05-28T13:47:53.297Z,33.40
2019-05-28T13:52:55.279Z,33.65
2019-05-28T13:57:57.196Z,31.58
2019-05-28T14:02:59.195Z,33.59
2019-05-28T14:08:01.140Z,33.29
2019-05-28T14:13:03.418Z,32.08
2019-05-28T14:18:05.444Z,32.53
2019-05-28T14:23:07.509Z,32.77
2019-05-28T14:28:09.347Z,34.34
2019-05-28T14:33:11.407Z,32.67
2019-05-28T14:38:13.363Z,33.67
2019-05-28T14:43:15.345Z,37.42
2019-05-28T14:48:17.402Z,39.17
2019-05-28T14:53:19.395Z,39.79
2019-05-28T14:58:21.539Z,40.29
2019-05-28T15:03:23.394Z,41.41
2019-05-28T15:08:25.201Z,40.95
2019-05-28T15:13:27.077Z,40.75
2019-05-28T15:18:28.888Z,41.97
2019-05-28T15:23:30.827Z,41.95
2019-05-28T15:28:32.685Z,42.43
2019-05-28T15:33:34.703Z,43.03
2019-05-28T15:38:38.429Z,43.27
2019-05-28T15:43:40.683Z,44.45
2019-05-28T15:48:42.582Z,43.39
2019-05-28T15:53:44.500Z,42.89
2019-05-28T15:58:46.517Z,45.26
2019-05-28T16:03:48.717Z,44.10
2019-05-28T16:08:50.583Z,44.72
2019-05-28T16:13:53.605Z,45.27
2019-05-28T16:18:55.458Z,47.74
2019-05-28T16:23:57.472Z,48.07
2019-05-28T16:29:01.149Z,48.68
2019-05-28T16:34:03.284Z,46.79
2019-05-28T16:39:07.744Z,48.91
2019-05-28T16:44:09.633Z,50.12
2019-05-28T16:49:11.574Z,47.92
2019-05-28T16:54:18.988Z,47.93
2019-05-28T16:59:18.469Z,48.94
2019-05-28T17:04:20.423Z,44.31
2019-05-28T17:09:22.235Z,43.95
2019-05-28T17:14:27.049Z,44.25
2019-05-28T17:19:28.031Z,44.66
2019-05-28T17:24:31.193Z,41.30
2019-05-28T17:29:33.179Z,41.61
2019-05-28T17:34:35.180Z,39.43
2019-05-28T17:39:37.102Z,39.08
2019-05-28T17:44:39.290Z,40.30
2019-05-28T17:49:41.147Z,39.05
2019-05-28T17:54:43.026Z,39.37
2019-05-28T17:59:44.889Z,39.54
2019-05-28T18:04:46.763Z,41.22
2019-05-28T18:09:48.592Z,39.80
2019-05-28T18:14:51.749Z,38.88
2019-05-28T18:19:54.922Z,39.15
2019-05-28T18:24:57.460Z,41.41
2019-05-28T18:29:59.485Z,40.26
2019-05-28T18:35:01.473Z,40.46
2019-05-28T18:40:11.620Z,39.97
2019-05-28T18:45:14.848Z,40.27
2019-05-28T18:50:17.080Z,38.03
2019-05-28T18:55:19.301Z,41.13
2019-05-28T19:00:21.504Z,42.01
2019-05-28T19:05:23.693Z,41.85
2019-05-28T19:10:25.527Z,42.98
2019-05-28T19:15:28.009Z,43.42
2019-05-28T19:20:29.951Z,43.18
2019-05-28T19:25:33.758Z,44.50
2019-05-28T19:30:35.870Z,44.55
2019-05-28T19:35:39.866Z,45.38
2019-05-28T19:40:43.159Z,44.61
2019-05-28T19:45:48.255Z,46.19
2019-05-28T19:50:50.313Z,45.96
2019-05-28T19:55:52.348Z,45.62
2019-05-28T20:00:54.343Z,45.49
2019-05-28T20:05:56.330Z,45.28
2019-05-28T20:10:58.222Z,45.85
2019-05-28T20:16:00.187Z,45.98
2019-05-28T20:21:02.092Z,46.99
2019-05-28T20:26:04.036Z,47.26
2019-05-28T20:31:06.099Z,47.20
2019-05-28T20:36:08.230Z,47.47
2019-05-28T20:41:10.216Z,47.62
2019-05-28T20:46:12.240Z,48.16
2019-05-28T20:51:21.665Z,48.21
2019-05-28T20:56:17.998Z,49.04
2019-05-28T21:01:20.011Z,49.38
2019-05-28T21:06:21.954Z,49.63
2019-05-28T21:11:23.969Z,50.66
2019-05-28T21:16:25.892Z,51.36
2019-05-28T21:21:27.743Z,51.31
2019-05-28T21:26:29.652Z,51.65
2019-05-28T21:31:31.561Z,51.78
2019-05-28T21:36:33.524Z,52.00
2019-05-28T21:41:35.427Z,53.48
2019-05-28T21:46:37.415Z,53.99
2019-05-28T21:51:39.641Z,53.95
2019-05-28T21:56:41.677Z,54.08
2019-05-28T22:01:44.191Z,54.96
2019-05-28T22:06:46.093Z,56.23
2019-05-28T22:11:48.014Z,56.51
2019-05-28T22:16:49.875Z,55.59
2019-05-28T22:21:51.846Z,55.62
2019-05-28T22:26:53.816Z,56.21
2019-05-28T22:31:56.666Z,55.91
2019-05-28T22:36:58.767Z,55.87
2019-05-28T22:42:01.601Z,55.95
2019-05-28T22:47:03.772Z,56.86
2019-05-28T22:52:06.038Z,57.41
2019-05-28T22:57:08.557Z,57.29
2019-05-28T23:02:10.569Z,57.68
2019-05-28T23:07:12.542Z,57.80
2019-05-28T23:12:14.484Z,58.35
2019-05-28T23:17:16.330Z,58.14
2019-05-28T23:22:18.149Z,58.06
2019-05-28T23:27:20.126Z,58.43
2019-05-28T23:32:21.953Z,58.82
2019-05-28T23:37:23.814Z,58.56
2019-05-28T23:42:25.722Z,59.10
2019-05-28T23:47:27.564Z,59.37
2019-05-28T23:52:29.429Z,59.18
2019-05-28T23:57:31.271Z,60.60
